Time;durP1;ratioP1;P1;durP2;ratioP2;P2;SDS_P1;SDS_P2;PMS_P1;PMS_P2;Temp;Humidity;BMP_temperature;BMP_pressure;BME280_temperature;BME280_humidity;BME280_pressure;Samples;Min_cycle;Max_cycle;Signal;HPM_P1;HPM_P2
2021/06/08 00:02:21;;;;;;;3.65;2.05;;;20.00;71.40;;;;;;5039125;28;20044;-83
2021/06/08 00:04:46;;;;;;;3.92;1.90;;;20.00;71.10;;;;;;5025162;28;20040;-83
2021/06/08 00:07:12;;;;;;;3.83;2.13;;;19.90;71.60;;;;;;5034637;28;20029;-83
2021/06/08 00:09:38;;;;;;;2.83;2.00;;;19.90;71.30;;;;;;5032815;28;20024;-83
2021/06/08 00:12:03;;;;;;;3.22;2.00;;;19.90;71.30;;;;;;5034486;28;20490;-82
2021/06/08 00:14:29;;;;;;;2.90;2.05;;;19.80;71.00;;;;;;5014850;28;20045;-83
2021/06/08 00:16:55;;;;;;;3.53;2.17;;;19.80;70.60;;;;;;5023480;28;20021;-83
2021/06/08 00:19:20;;;;;;;4.70;2.30;;;19.80;71.00;;;;;;5020902;28;20037;-83
2021/06/08 00:21:52;;;;;;;3.85;2.53;;;19.70;71.30;;;;;;5031109;28;20414;-83
2021/06/08 00:24:18;;;;;;;5.10;2.10;;;19.70;71.70;;;;;;5014554;28;20037;-83
2021/06/08 00:26:43;;;;;;;3.38;2.50;;;19.60;71.70;;;;;;5001147;28;20036;-82
2021/06/08 00:29:09;;;;;;;4.55;2.45;;;19.60;71.80;;;;;;5034181;28;20029;-83
2021/06/08 00:31:34;;;;;;;6.03;2.65;;;19.50;71.80;;;;;;5017186;28;20025;-83
2021/06/08 00:34:00;;;;;;;5.25;2.38;;;19.50;72.20;;;;;;5001487;28;20108;-83
2021/06/08 00:36:26;;;;;;;4.65;2.63;;;19.50;72.20;;;;;;5034358;28;20029;-83
2021/06/08 00:38:51;;;;;;;4.63;2.72;;;19.40;72.30;;;;;;5001608;28;20390;-83
2021/06/08 00:41:19;;;;;;;4.45;2.92;;;19.40;72.40;;;;;;5030990;28;20029;-83
2021/06/08 00:43:45;;;;;;;5.53;3.10;;;19.40;72.70;;;;;;5024341;28;20083;-83
2021/06/08 00:46:11;;;;;;;6.50;2.67;;;19.30;72.60;;;;;;5018281;28;20032;-82
2021/06/08 00:48:36;;;;;;;5.07;2.60;;;19.30;73.10;;;;;;5019109;28;20112;-83
2021/06/08 00:51:02;;;;;;;3.75;2.70;;;19.30;73.00;;;;;;5004205;28;20061;-83
2021/06/08 00:53:28;;;;;;;4.85;2.83;;;19.20;73.40;;;;;;5018801;28;20021;-83
2021/06/08 00:55:54;;;;;;;4.15;2.60;;;19.10;73.60;;;;;;5018336;28;20382;-83
2021/06/08 00:58:19;;;;;;;3.22;2.30;;;19.10;73.60;;;;;;5034071;28;20561;-83
2021/06/08 01:00:46;;;;;;;4.22;2.60;;;19.10;74.30;;;;;;5017680;28;20033;-83
2021/06/08 01:03:12;;;;;;;5.72;3.00;;;19.00;73.70;;;;;;5033569;28;20364;-83
2021/06/08 01:05:38;;;;;;;6.03;2.92;;;19.00;74.60;;;;;;5020342;28;20028;-83
2021/06/08 01:08:04;;;;;;;4.68;2.70;;;19.00;74.40;;;;;;5030719;28;20021;-83
2021/06/08 01:10:30;;;;;;;4.53;2.40;;;18.90;74.60;;;;;;4998950;28;20124;-83
2021/06/08 01:12:56;;;;;;;4.55;2.90;;;18.90;74.60;;;;;;5043624;23;20065;-87
2021/06/08 01:15:24;;;;;;;4.20;2.50;;;18.80;74.50;;;;;;5017781;28;20040;-87
2021/06/08 01:17:51;;;;;;;4.95;2.95;;;18.80;74.70;;;;;;5016472;28;20572;-86
2021/06/08 01:20:18;;;;;;;4.93;3.00;;;18.80;75.10;;;;;;5041961;28;20020;-86
2021/06/08 01:22:43;;;;;;;4.60;2.95;;;18.70;75.70;;;;;;5049633;28;20023;-87
2021/06/08 01:25:10;;;;;;;5.65;2.97;;;18.70;75.60;;;;;;5048277;28;20029;-87
2021/06/08 01:27:37;;;;;;;4.22;3.17;;;18.70;75.40;;;;;;5009997;28;20031;-87
2021/06/08 01:30:04;;;;;;;3.97;3.00;;;18.60;75.90;;;;;;5017346;28;20029;-87
2021/06/08 01:32:32;;;;;;;4.57;3.30;;;18.60;75.90;;;;;;5031333;28;20017;-86
2021/06/08 01:34:58;;;;;;;7.32;3.60;;;18.50;75.90;;;;;;5010994;28;20021;-86
2021/06/08 01:37:25;;;;;;;7.18;4.35;;;18.50;76.10;;;;;;5039515;28;20021;-86
2021/06/08 01:39:52;;;;;;;5.10;3.30;;;18.50;76.10;;;;;;5071882;28;20404;-86
2021/06/08 01:42:17;;;;;;;6.03;3.75;;;18.40;76.10;;;;;;5034231;28;20119;-86
2021/06/08 01:44:45;;;;;;;5.88;3.78;;;18.40;76.40;;;;;;5042231;28;20099;-86
2021/06/08 01:47:12;;;;;;;6.00;3.45;;;18.40;76.70;;;;;;5057403;28;20033;-86
2021/06/08 01:49:38;;;;;;;6.72;4.18;;;18.30;76.80;;;;;;5043223;28;20082;-86
2021/06/08 01:52:36;;;;;;;4.68;3.70;;;18.30;77.00;;;;;;5050709;28;20023;-86
2021/06/08 01:55:11;;;;;;;6.88;4.40;;;18.30;77.30;;;;;;5063182;28;20043;-86
2021/06/08 01:57:40;;;;;;;12.48;4.55;;;18.20;77.40;;;;;;5070911;28;20027;-86
2021/06/08 02:00:07;;;;;;;6.05;3.95;;;18.20;77.60;;;;;;5043606;28;20032;-86
2021/06/08 02:02:52;;;;;;;5.88;4.38;;;18.10;77.80;;;;;;5063279;28;20021;-86
2021/06/08 02:05:28;;;;;;;6.82;4.68;;;18.10;77.80;;;;;;5043706;28;20036;-86
2021/06/08 02:08:18;;;;;;;5.60;4.63;;;18.10;77.90;;;;;;5043451;28;20025;-86
2021/06/08 02:11:05;;;;;;;6.10;4.40;;;18.00;78.00;;;;;;5037528;28;20029;-86
2021/06/08 02:13:46;;;;;;;7.22;4.60;;;18.00;78.50;;;;;;5050976;28;20364;-86
2021/06/08 02:16:21;;;;;;;7.82;5.38;;;18.00;78.60;;;;;;5049497;28;20027;-87
2021/06/08 02:19:04;;;;;;;6.38;4.68;;;17.90;78.20;;;;;;5057929;28;20035;-86
2021/06/08 02:21:34;;;;;;;7.43;5.03;;;17.90;77.90;;;;;;5059641;28;20477;-86
2021/06/08 02:24:02;;;;;;;6.03;4.57;;;17.80;78.10;;;;;;5076162;28;20032;-86
2021/06/08 02:26:29;;;;;;;6.30;4.70;;;17.80;78.40;;;;;;5061902;28;20393;-86
2021/06/08 02:29:20;;;;;;;6.63;4.78;;;17.70;78.80;;;;;;5056329;28;20024;-86
2021/06/08 02:31:47;;;;;;;7.07;5.43;;;17.70;79.20;;;;;;5050095;28;20021;-86
2021/06/08 02:34:15;;;;;;;6.68;5.32;;;17.70;79.20;;;;;;5070190;28;20020;-86
2021/06/08 02:36:44;;;;;;;6.50;5.20;;;17.70;79.30;;;;;;5039992;28;20024;-87
2021/06/08 02:39:11;;;;;;;9.52;5.93;;;17.60;79.60;;;;;;5074455;28;20035;-86
2021/06/08 02:41:50;;;;;;;9.85;5.72;;;17.60;80.00;;;;;;5044189;28;20037;-86
2021/06/08 02:44:16;;;;;;;9.05;5.95;;;17.60;80.20;;;;;;5038974;28;20061;-86
2021/06/08 02:46:42;;;;;;;9.80;6.05;;;17.60;80.10;;;;;;5028553;28;20036;-86
2021/06/08 02:49:09;;;;;;;7.40;5.47;;;17.60;80.00;;;;;;5053230;28;20033;-86
2021/06/08 02:51:36;;;;;;;9.18;5.85;;;17.50;80.20;;;;;;5062419;28;20017;-87
2021/06/08 02:54:04;;;;;;;7.85;5.57;;;17.50;80.60;;;;;;5060441;28;20036;-86
2021/06/08 02:56:31;;;;;;;7.97;6.30;;;17.50;80.40;;;;;;5067610;28;20480;-86
2021/06/08 02:58:57;;;;;;;8.73;6.13;;;17.40;80.50;;;;;;5025609;28;20033;-87
2021/06/08 03:01:23;;;;;;;8.40;5.78;;;17.40;80.90;;;;;;5036284;28;20086;-86
2021/06/08 03:03:54;;;;;;;8.02;6.60;;;17.40;80.80;;;;;;5028323;28;20540;-86
2021/06/08 03:06:27;;;;;;;8.25;6.38;;;17.30;80.60;;;;;;5042344;28;20469;-87
2021/06/08 03:08:58;;;;;;;7.63;6.15;;;17.30;80.80;;;;;;5064201;28;20047;-87
2021/06/08 03:11:28;;;;;;;;;;;17.30;80.80;;;;;;5070354;28;20012;-87
2021/06/08 03:13:55;;;;;;;8.73;6.75;;;17.20;81.40;;;;;;5063505;28;19955;-87
2021/06/08 03:16:24;;;;;;;10.00;7.25;;;17.20;81.50;;;;;;5058172;28;20023;-87
2021/06/08 03:18:52;;;;;;;10.60;7.05;;;17.20;81.70;;;;;;5062067;28;20063;-87
2021/06/08 03:21:23;;;;;;;9.15;7.15;;;17.20;81.70;;;;;;5059472;28;20474;-87
2021/06/08 03:23:51;;;;;;;;;;;17.10;81.70;;;;;;5058409;28;20031;-86
2021/06/08 03:26:18;;;;;;;8.20;7.40;;;17.10;82.40;;;;;;5050494;28;20287;-86
2021/06/08 03:28:46;;;;;;;11.13;8.18;;;17.10;82.20;;;;;;5019933;28;20025;-86
2021/06/08 03:31:13;;;;;;;10.40;7.25;;;17.10;82.60;;;;;;5044467;28;20473;-86
2021/06/08 03:33:40;;;;;;;10.52;7.57;;;17.10;82.50;;;;;;5053089;28;20053;-86
2021/06/08 03:36:08;;;;;;;10.00;7.97;;;17.10;82.40;;;;;;5045939;28;20473;-86
2021/06/08 03:38:35;;;;;;;8.65;7.47;;;17.00;83.20;;;;;;5048746;28;20031;-86
2021/06/08 03:41:01;;;;;;;9.80;7.57;;;17.00;82.50;;;;;;5054671;28;20044;-86
2021/06/08 03:43:27;;;;;;;10.32;8.57;;;17.00;82.20;;;;;;5046706;28;20039;-86
2021/06/08 03:45:53;;;;;;;11.02;8.05;;;17.00;82.70;;;;;;5054924;28;20033;-86
2021/06/08 03:48:20;;;;;;;10.52;7.97;;;16.90;82.60;;;;;;5055125;28;20115;-87
2021/06/08 03:50:49;;;;;;;9.88;8.25;;;16.90;82.90;;;;;;5038895;28;20070;-88
2021/06/08 03:53:14;;;;;;;11.77;7.75;;;16.90;83.00;;;;;;5055635;28;20017;-87
2021/06/08 03:55:40;;;;;;;10.48;7.82;;;16.90;83.30;;;;;;5031423;28;20090;-88
2021/06/08 03:58:12;;;;;;;9.52;7.57;;;16.90;83.40;;;;;;5039011;28;20079;-88
2021/06/08 04:00:39;;;;;;;10.98;7.90;;;16.90;84.00;;;;;;5027150;28;20475;-88
2021/06/08 04:03:08;;;;;;;11.80;8.00;;;16.80;83.90;;;;;;5067465;28;20422;-87
2021/06/08 04:05:34;;;;;;;8.63;7.57;;;16.80;84.00;;;;;;5033823;28;20021;-88
2021/06/08 04:08:00;;;;;;;10.93;8.10;;;16.80;84.30;;;;;;5028035;28;20025;-87
2021/06/08 04:10:26;;;;;;;9.55;8.15;;;16.80;84.30;;;;;;5008261;28;20102;-88
2021/06/08 04:12:59;;;;;;;10.93;7.93;;;16.80;84.50;;;;;;5046446;28;20029;-88
2021/06/08 04:15:26;;;;;;;10.00;7.38;;;16.80;84.90;;;;;;5039450;28;20024;-88
2021/06/08 04:17:52;;;;;;;11.30;8.00;;;16.80;85.00;;;;;;5018896;28;20021;-87
2021/06/08 04:20:28;;;;;;;10.50;7.82;;;16.80;85.40;;;;;;5063840;28;20027;-87
2021/06/08 04:22:56;;;;;;;11.07;7.85;;;16.80;85.50;;;;;;5066138;28;20017;-87
2021/06/08 04:25:34;;;;;;;9.75;8.05;;;16.80;85.40;;;;;;5029319;28;20047;-88
2021/06/08 04:28:02;;;;;;;10.55;8.25;;;16.80;85.50;;;;;;5043011;28;20150;-88
2021/06/08 04:30:27;;;;;;;9.63;7.95;;;16.80;85.30;;;;;;5039242;28;20036;-88
2021/06/08 04:32:53;;;;;;;9.38;7.50;;;16.80;85.40;;;;;;5064011;28;20369;-87
2021/06/08 04:35:19;;;;;;;11.15;8.02;;;16.90;85.40;;;;;;5046751;28;20462;-87
2021/06/08 04:37:45;;;;;;;11.80;8.77;;;16.90;85.40;;;;;;5035554;28;20083;-88
2021/06/08 04:40:12;;;;;;;10.55;8.48;;;16.90;85.50;;;;;;5035567;28;20029;-88
2021/06/08 04:42:44;;;;;;;9.68;8.52;;;16.90;85.50;;;;;;5034047;28;20033;-88
2021/06/08 04:45:10;;;;;;;10.82;8.88;;;16.90;85.50;;;;;;5058416;28;20086;-87
2021/06/08 04:47:36;;;;;;;11.73;9.48;;;16.80;85.60;;;;;;5071648;28;20035;-87
2021/06/08 04:50:02;;;;;;;11.18;8.48;;;16.80;85.50;;;;;;5045568;28;20104;-87
2021/06/08 04:52:28;;;;;;;13.57;9.18;;;16.80;85.50;;;;;;5066809;28;20370;-88
2021/06/08 04:54:53;;;;;;;10.90;8.98;;;16.80;85.50;;;;;;5018756;28;20036;-87
2021/06/08 04:57:19;;;;;;;11.38;8.57;;;16.90;85.70;;;;;;5062422;28;20048;-88
2021/06/08 05:00:13;;;;;;;10.38;8.82;;;16.90;86.00;;;;;;5042098;28;20017;-87
2021/06/08 05:02:52;;;;;;;10.05;8.68;;;16.90;86.40;;;;;;5054810;28;20036;-87
2021/06/08 05:05:31;;;;;;;11.70;8.90;;;16.90;86.20;;;;;;5052094;28;20024;-86
2021/06/08 05:11:28;;;;;;;13.18;8.00;;;16.90;86.00;;;;;;5075378;28;20035;-86
2021/06/08 05:13:55;;;;;;;10.05;8.35;;;16.90;85.90;;;;;;5059080;28;20039;-87
2021/06/08 05:16:21;;;;;;;10.93;7.60;;;16.90;86.20;;;;;;5042120;28;20394;-86
2021/06/08 05:18:52;;;;;;;11.35;7.82;;;17.00;86.40;;;;;;5036263;28;20461;-87
2021/06/08 05:21:20;;;;;;;;;;;17.00;86.40;;;;;;5063389;28;20032;-86
2021/06/08 05:23:48;;;;;;;8.95;7.50;;;17.00;86.60;;;;;;5058150;28;19904;-86
2021/06/08 05:26:14;;;;;;;10.32;8.00;;;17.00;86.30;;;;;;5043814;28;20442;-87
2021/06/08 05:28:40;;;;;;;8.85;7.70;;;17.00;86.20;;;;;;5075559;28;20106;-87
2021/06/08 05:31:06;;;;;;;10.43;7.13;;;17.00;86.30;;;;;;5070865;28;20112;-87
2021/06/08 05:33:33;;;;;;;9.95;7.68;;;17.00;86.50;;;;;;5063257;28;20104;-86
2021/06/08 05:35:58;;;;;;;8.30;7.10;;;17.10;86.80;;;;;;5041016;28;20025;-86
2021/06/08 05:38:36;;;;;;;9.85;6.72;;;17.10;87.00;;;;;;5049884;28;20094;-83
2021/06/08 05:41:07;;;;;;;8.02;6.68;;;17.10;87.30;;;;;;5051441;28;20025;-83
2021/06/08 05:43:33;;;;;;;7.90;5.95;;;17.20;87.40;;;;;;5068054;28;20026;-83
2021/06/08 05:45:59;;;;;;;8.52;6.35;;;17.20;87.70;;;;;;5057361;28;20123;-83
2021/06/08 05:48:26;;;;;;;8.02;6.25;;;17.20;87.80;;;;;;5036976;28;20074;-84
2021/06/08 05:50:59;;;;;;;8.68;6.20;;;17.30;88.00;;;;;;5045211;28;20017;-83
2021/06/08 05:53:25;;;;;;;7.65;5.75;;;17.30;88.20;;;;;;5057142;28;20036;-83
2021/06/08 05:55:55;;;;;;;7.15;5.45;;;17.40;88.30;;;;;;5043983;28;20021;-83
2021/06/08 05:58:25;;;;;;;7.70;5.00;;;17.40;88.40;;;;;;5056991;28;20021;-83
2021/06/08 06:00:52;;;;;;;7.53;4.88;;;17.50;88.50;;;;;;5040653;28;20029;-83
2021/06/08 06:03:19;;;;;;;6.43;5.25;;;17.50;88.70;;;;;;5074860;28;20035;-83
2021/06/08 06:05:50;;;;;;;6.72;5.20;;;17.50;88.70;;;;;;5056606;28;20478;-83
2021/06/08 06:08:16;;;;;;;6.53;4.97;;;17.60;88.70;;;;;;5045867;28;20063;-83
2021/06/08 06:10:43;;;;;;;7.03;4.97;;;17.60;88.80;;;;;;5034094;28;20029;-83
2021/06/08 06:13:17;;;;;;;7.75;5.32;;;17.60;88.80;;;;;;5045931;28;20020;-83
2021/06/08 06:15:46;;;;;;;6.28;5.15;;;17.70;88.40;;;;;;5043284;28;20025;-83
2021/06/08 06:18:13;;;;;;;7.60;5.43;;;17.70;88.50;;;;;;5063949;28;20157;-83
2021/06/08 06:20:40;;;;;;;7.72;5.63;;;17.80;88.20;;;;;;5063426;28;20063;-83
2021/06/08 06:23:06;;;;;;;7.45;5.28;;;17.80;87.70;;;;;;5074881;28;20103;-83
2021/06/08 06:25:32;;;;;;;7.50;5.53;;;17.90;87.90;;;;;;5056926;28;20025;-83
2021/06/08 06:27:58;;;;;;;8.73;5.70;;;17.90;87.70;;;;;;5042480;28;20107;-83
2021/06/08 06:30:24;;;;;;;6.15;4.65;;;17.90;86.30;;;;;;5028800;28;20036;-83
2021/06/08 06:32:51;;;;;;;6.43;4.53;;;18.00;86.10;;;;;;5054207;28;20016;-84
2021/06/08 06:35:18;;;;;;;5.93;4.00;;;18.00;86.10;;;;;;5072740;28;20027;-83
2021/06/08 06:37:46;;;;;;;6.25;4.07;;;18.00;86.10;;;;;;5056505;28;20501;-84
2021/06/08 06:40:27;;;;;;;6.07;4.00;;;18.10;86.20;;;;;;5055813;28;20028;-84
2021/06/08 06:42:54;;;;;;;;;;;18.20;86.20;;;;;;5074499;28;20017;-84
2021/06/08 06:45:21;;;;;;;6.28;3.55;;;18.20;85.80;;;;;;5041847;28;19978;-83
2021/06/08 06:47:48;;;;;;;5.40;3.67;;;18.30;85.60;;;;;;5048191;28;20029;-84
2021/06/08 06:50:15;;;;;;;6.85;3.63;;;18.30;84.90;;;;;;5067810;28;20081;-84
2021/06/08 06:52:44;;;;;;;5.50;3.47;;;18.30;84.50;;;;;;5028355;28;20381;-84
2021/06/08 06:55:11;;;;;;;4.65;3.45;;;18.40;84.50;;;;;;5072165;28;20025;-83
2021/06/08 06:57:41;;;;;;;5.45;3.60;;;18.50;84.90;;;;;;5055784;28;20032;-83
2021/06/08 07:00:07;;;;;;;5.30;3.40;;;18.50;84.40;;;;;;5073296;28;20036;-83
2021/06/08 07:02:35;;;;;;;4.28;2.90;;;18.60;84.50;;;;;;5042466;28;20047;-84
2021/06/08 07:05:01;;;;;;;4.32;2.70;;;18.70;84.70;;;;;;5019081;28;20040;-84
2021/06/08 07:07:28;;;;;;;4.20;2.67;;;18.70;84.40;;;;;;5037950;28;20056;-84
2021/06/08 07:09:54;;;;;;;5.03;2.63;;;18.80;84.40;;;;;;5046784;28;20071;-84
2021/06/08 07:12:21;;;;;;;5.05;2.60;;;18.90;84.40;;;;;;5058067;28;20017;-83
2021/06/08 07:14:48;;;;;;;4.38;2.65;;;19.00;84.50;;;;;;5062987;23;20094;-86
2021/06/08 07:17:14;;;;;;;2.85;2.20;;;19.10;84.40;;;;;;5055320;28;20073;-86
2021/06/08 07:19:41;;;;;;;4.25;2.50;;;19.10;83.20;;;;;;5055500;28;20355;-86
2021/06/08 07:22:08;;;;;;;4.45;2.20;;;19.20;82.10;;;;;;5038835;28;20032;-86
2021/06/08 07:24:35;;;;;;;4.80;2.60;;;19.30;81.90;;;;;;5038597;28;20021;-86
2021/06/08 07:27:00;;;;;;;4.60;2.65;;;19.40;81.90;;;;;;5055439;28;20012;-86
2021/06/08 07:29:26;;;;;;;5.20;2.60;;;19.40;81.50;;;;;;5022174;28;20028;-86
2021/06/08 07:32:04;;;;;;;4.07;2.80;;;19.50;81.10;;;;;;5022407;28;20016;-86
2021/06/08 07:34:47;;;;;;;3.67;2.45;;;19.60;80.10;;;;;;5055226;28;20020;-86
2021/06/08 07:37:18;;;;;;;4.60;2.58;;;19.70;80.50;;;;;;5062938;28;20028;-86
2021/06/08 07:40:02;;;;;;;4.45;2.80;;;19.80;80.60;;;;;;5068704;28;20020;-86
2021/06/08 07:42:48;;;;;;;4.40;2.40;;;19.90;80.30;;;;;;5054807;28;20032;-86
2021/06/08 07:45:20;;;;;;;7.07;2.70;;;20.00;79.10;;;;;;5054950;28;20025;-86
2021/06/08 07:47:56;;;;;;;3.92;2.53;;;20.10;79.00;;;;;;5054970;28;20032;-86
2021/06/08 07:50:28;;;;;;;2.97;2.17;;;20.20;79.40;;;;;;5054856;28;20024;-86
2021/06/08 07:52:55;;;;;;;3.08;2.00;;;20.40;79.50;;;;;;5054922;28;20158;-86
2021/06/08 07:55:21;;;;;;;6.60;2.58;;;20.50;79.70;;;;;;5021780;28;20020;-86
2021/06/08 07:57:47;;;;;;;3.63;2.20;;;20.50;79.60;;;;;;5054669;28;20028;-86
2021/06/08 08:00:15;;;;;;;2.97;1.83;;;20.70;79.10;;;;;;5058399;28;20481;-86
2021/06/08 08:02:42;;;;;;;3.00;1.80;;;20.80;79.30;;;;;;5044483;28;20393;-86
2021/06/08 08:05:11;;;;;;;2.97;1.80;;;20.90;79.30;;;;;;5031661;28;20035;-88
2021/06/08 08:07:38;;;;;;;3.75;2.10;;;21.00;78.60;;;;;;5040211;28;20544;-87
2021/06/08 08:10:05;;;;;;;4.30;2.60;;;21.10;78.30;;;;;;5066989;28;20450;-88
2021/06/08 08:12:41;;;;;;;3.58;2.30;;;21.20;78.40;;;;;;5059693;28;20118;-88
2021/06/08 08:15:09;;;;;;;2.80;1.90;;;21.30;77.40;;;;;;5060871;28;20037;-88
2021/06/08 08:17:36;;;;;;;4.50;2.33;;;21.40;76.30;;;;;;5045938;28;20485;-88
2021/06/08 08:20:09;;;;;;;2.25;1.73;;;21.50;75.30;;;;;;5062723;28;20384;-88
2021/06/08 08:22:36;;;;;;;2.30;2.05;;;21.60;76.40;;;;;;5041413;28;20032;-87
2021/06/08 08:25:04;;;;;;;3.42;1.90;;;21.60;76.00;;;;;;5066839;28;20036;-88
2021/06/08 08:27:29;;;;;;;3.15;2.10;;;21.80;75.70;;;;;;5071193;28;20028;-88
2021/06/08 08:29:55;;;;;;;4.53;2.40;;;21.80;75.20;;;;;;5078302;28;20077;-88
2021/06/08 08:32:22;;;;;;;2.50;2.10;;;21.90;74.80;;;;;;5047540;28;20028;-88
2021/06/08 08:34:48;;;;;;;3.65;2.40;;;22.10;75.00;;;;;;5025843;28;20021;-88
2021/06/08 08:37:14;;;;;;;2.80;2.03;;;22.20;74.50;;;;;;5028717;28;20029;-88
2021/06/08 08:39:39;;;;;;;3.10;2.30;;;22.20;73.30;;;;;;5054754;28;20024;-88
2021/06/08 08:42:06;;;;;;;5.18;2.15;;;22.30;72.50;;;;;;5054787;28;20139;-88
2021/06/08 08:44:32;;;;;;;3.35;2.25;;;22.40;72.50;;;;;;5047278;28;20029;-88
2021/06/08 08:46:58;;;;;;;3.63;2.10;;;22.40;71.90;;;;;;5057641;28;20119;-88
2021/06/08 08:49:25;;;;;;;5.60;2.30;;;22.50;71.70;;;;;;5054364;28;20111;-89
2021/06/08 08:51:51;;;;;;;3.70;2.65;;;22.60;72.10;;;;;;5047512;28;20081;-89
2021/06/08 08:54:20;;;;;;;3.22;2.38;;;22.70;72.10;;;;;;5061215;28;20028;-88
2021/06/08 08:56:46;;;;;;;3.05;2.38;;;22.80;71.80;;;;;;5058432;28;20546;-88
2021/06/08 08:59:16;;;;;;;5.60;3.10;;;22.80;71.20;;;;;;5047512;28;20359;-87
2021/06/08 09:01:47;;;;;;;3.97;2.80;;;22.90;71.20;;;;;;5061165;28;20477;-88
2021/06/08 09:04:13;;;;;;;5.60;3.00;;;23.00;71.30;;;;;;5062313;28;20078;-88
2021/06/08 09:06:40;;;;;;;3.85;2.80;;;23.10;71.00;;;;;;5062769;28;20021;-88
2021/06/08 09:09:08;;;;;;;3.75;2.75;;;23.10;70.60;;;;;;5058395;28;20386;-88
2021/06/08 09:11:40;;;;;;;3.40;2.35;;;23.20;70.30;;;;;;5076080;28;20378;-89
2021/06/08 09:14:06;;;;;;;5.00;2.90;;;23.30;70.30;;;;;;5042500;28;20083;-88
2021/06/08 09:16:33;;;;;;;5.50;3.00;;;23.30;70.10;;;;;;5034504;28;20032;-89
2021/06/08 09:19:02;;;;;;;5.65;3.35;;;23.40;68.50;;;;;;5072343;28;20031;-89
2021/06/08 09:21:28;;;;;;;3.63;2.90;;;23.40;67.60;;;;;;5044712;28;20047;-88
2021/06/08 09:24:13;;;;;;;3.70;2.70;;;23.50;68.00;;;;;;5049699;28;20028;-89
2021/06/08 09:26:50;;;;;;;3.80;2.63;;;23.50;68.50;;;;;;5072222;28;20059;-89
2021/06/08 09:29:38;;;;;;;4.07;2.85;;;23.60;69.00;;;;;;5074696;28;20039;-90
2021/06/08 09:32:28;;;;;;;3.55;2.63;;;23.70;69.10;;;;;;5060958;28;20023;-89
2021/06/08 09:35:01;;;;;;;3.50;2.60;;;23.80;68.80;;;;;;5074837;28;20477;-89
2021/06/08 09:37:41;;;;;;;3.63;2.60;;;23.80;68.80;;;;;;5046123;28;20086;-89
2021/06/08 09:40:27;;;;;;;5.57;3.72;;;24.00;68.10;;;;;;5053990;28;20029;-89
2021/06/08 09:43:08;;;;;;;5.95;3.88;;;24.10;67.40;;;;;;5065157;28;20036;-89
2021/06/08 09:45:52;;;;;;;4.40;3.30;;;24.10;67.80;;;;;;5072301;28;20100;-90
2021/06/08 09:48:18;;;;;;;5.15;3.58;;;24.10;68.20;;;;;;5063664;28;20107;-89
2021/06/08 09:50:49;;;;;;;4.45;3.33;;;24.20;67.00;;;;;;5073956;28;20167;-89
2021/06/08 09:53:27;;;;;;;4.00;3.35;;;24.20;67.30;;;;;;5057610;28;20032;-89
2021/06/08 09:55:57;;;;;;;5.47;3.35;;;24.30;67.00;;;;;;5073993;28;20190;-89
2021/06/08 09:58:24;;;;;;;4.15;3.45;;;24.40;67.40;;;;;;5061763;28;20110;-89
2021/06/08 10:01:09;;;;;;;4.68;3.30;;;24.50;67.00;;;;;;5042605;28;20492;-89
2021/06/08 10:03:53;;;;;;;4.80;3.60;;;24.50;65.90;;;;;;5064372;28;20045;-89
2021/06/08 10:06:41;;;;;;;4.72;3.47;;;24.60;65.80;;;;;;5062949;28;20032;-89
2021/06/08 10:09:15;;;;;;;4.18;3.00;;;24.60;65.70;;;;;;5070476;28;20051;-89
2021/06/08 10:11:41;;;;;;;5.40;3.72;;;24.60;65.00;;;;;;5063827;28;20025;-89
2021/06/08 10:14:13;;;;;;;3.80;3.17;;;24.70;64.90;;;;;;5045066;28;20063;-90
2021/06/08 10:16:40;;;;;;;4.43;3.60;;;24.70;65.40;;;;;;5063607;28;20037;-89
2021/06/08 10:19:25;;;;;;;4.57;3.70;;;24.80;66.00;;;;;;5043141;28;20509;-88
2021/06/08 10:21:51;;;;;;;4.20;3.50;;;24.80;64.40;;;;;;5073967;28;20082;-89
2021/06/08 10:24:25;;;;;;;4.38;3.55;;;24.90;64.10;;;;;;5057099;28;20081;-89
2021/06/08 10:26:53;;;;;;;7.40;3.38;;;24.90;64.80;;;;;;5075949;28;20485;-89
2021/06/08 10:29:27;;;;;;;4.85;2.97;;;25.00;64.00;;;;;;5073587;28;20564;-90
2021/06/08 10:31:55;;;;;;;3.92;2.90;;;25.00;63.70;;;;;;5068975;28;20020;-89
2021/06/08 10:34:21;;;;;;;4.90;3.40;;;25.10;63.60;;;;;;5070868;28;20039;-89
2021/06/08 10:36:48;;;;;;;3.38;2.60;;;25.20;62.80;;;;;;5057846;28;20378;-89
2021/06/08 10:39:19;;;;;;;5.25;3.15;;;25.20;62.90;;;;;;5050805;28;20359;-88
2021/06/08 10:41:46;;;;;;;3.63;2.60;;;25.30;62.70;;;;;;5041585;28;20017;-89
2021/06/08 10:44:20;;;;;;;3.92;2.58;;;25.30;62.20;;;;;;5048630;28;20095;-88
2021/06/08 10:47:20;;;;;;;3.88;2.60;;;25.40;62.20;;;;;;5073198;28;20080;-89
2021/06/08 10:49:46;;;;;;;3.20;2.33;;;25.40;61.80;;;;;;5060771;28;20599;-89
2021/06/08 10:52:14;;;;;;;3.08;2.60;;;25.50;61.50;;;;;;5062986;28;20021;-89
2021/06/08 10:54:42;;;;;;;4.25;3.30;;;25.50;61.20;;;;;;5036821;28;20457;-89
2021/06/08 10:57:15;;;;;;;3.92;2.80;;;25.60;61.20;;;;;;5087123;28;20051;-90
2021/06/08 10:59:48;;;;;;;5.78;3.25;;;25.60;61.30;;;;;;5061029;28;20032;-89
2021/06/08 11:02:46;;;;;;;4.78;3.30;;;25.60;61.10;;;;;;5072549;28;20098;-90
2021/06/08 11:05:15;;;;;;;6.35;3.90;;;25.70;61.20;;;;;;5066734;28;20055;-88
2021/06/08 11:07:47;;;;;;;4.22;3.63;;;25.80;61.30;;;;;;5056614;28;20036;-90
2021/06/08 11:10:25;;;;;;;4.25;3.42;;;25.80;61.20;;;;;;5061753;28;20561;-89
2021/06/08 11:13:16;;;;;;;4.70;3.00;;;25.80;61.30;;;;;;5069628;28;20082;-89
2021/06/08 11:15:43;;;;;;;;;;;25.90;61.50;;;;;;5035870;28;20041;-89
2021/06/08 11:18:21;;;;;;;3.90;2.92;;;26.00;61.70;;;;;;5048487;28;19912;-89
2021/06/08 11:20:56;;;;;;;3.55;2.83;;;26.00;61.60;;;;;;5040554;28;20079;-89
2021/06/08 11:23:32;;;;;;;4.18;3.03;;;26.00;61.50;;;;;;5017365;28;20381;-89
2021/06/08 11:25:58;;;;;;;4.68;3.25;;;26.10;59.90;;;;;;5016112;28;20025;-89
2021/06/08 11:28:39;;;;;;;4.43;3.22;;;26.10;60.20;;;;;;5004477;28;20429;-90
2021/06/08 11:31:05;;;;;;;5.82;4.10;;;26.20;61.40;;;;;;5034241;28;20095;-90
2021/06/08 11:33:41;;;;;;;5.68;4.22;;;26.20;60.00;;;;;;5020334;28;20032;-90
2021/06/08 11:36:20;;;;;;;5.32;3.92;;;26.30;60.80;;;;;;5040551;28;20493;-90
2021/06/08 11:38:47;;;;;;;6.20;3.60;;;26.30;59.90;;;;;;5037315;28;20075;-90
2021/06/08 11:41:13;;;;;;;4.93;3.72;;;26.30;60.80;;;;;;5022499;28;20048;-89
2021/06/08 11:44:00;;;;;;;6.20;3.88;;;26.40;60.50;;;;;;5014705;28;20120;-88
2021/06/08 11:46:32;;;;;;;7.35;3.63;;;26.40;60.00;;;;;;5044633;28;20039;-90
2021/06/08 11:49:10;;;;;;;4.28;3.22;;;26.40;60.00;;;;;;5053019;28;20025;-90
2021/06/08 11:51:39;;;;;;;4.60;4.00;;;26.50;60.40;;;;;;5037034;28;20074;-90
2021/06/08 11:54:16;;;;;;;8.30;3.72;;;26.50;60.60;;;;;;5044918;28;20028;-90
2021/06/08 11:56:57;;;;;;;4.47;3.33;;;26.50;60.20;;;;;;5028691;28;20025;-90
2021/06/08 11:59:28;;;;;;;5.05;3.13;;;26.60;59.80;;;;;;5046716;28;20025;-90
2021/06/08 12:02:27;;;;;;;5.32;3.50;;;26.70;60.00;;;;;;5032878;28;20029;-90
2021/06/08 12:05:11;;;;;;;4.63;3.17;;;26.70;58.70;;;;;;5011092;28;20033;-90
2021/06/08 12:08:20;;;;;;;4.55;3.35;;;26.70;61.00;;;;;;5052181;28;20029;-90
2021/06/08 12:10:48;;;;;;;5.68;4.80;;;26.70;61.60;;;;;;5006418;28;20040;-90
2021/06/08 12:13:14;;;;;;;8.40;7.57;;;26.70;60.10;;;;;;5026707;28;21216;-90
2021/06/08 12:15:42;;;;;;;4.95;4.20;;;26.80;60.20;;;;;;5043382;28;20385;-90
2021/06/08 12:18:08;;;;;;;4.65;3.75;;;26.80;59.80;;;;;;5054091;28;20107;-89
2021/06/08 12:20:37;;;;;;;6.28;3.58;;;26.90;60.40;;;;;;5055201;28;20064;-90
2021/06/08 12:23:03;;;;;;;4.68;3.80;;;26.90;59.90;;;;;;5055273;28;20394;-90
2021/06/08 12:25:29;;;;;;;4.40;3.63;;;27.00;59.90;;;;;;5022436;28;20033;-90
2021/06/08 12:27:55;;;;;;;4.93;3.40;;;27.00;59.60;;;;;;5039068;28;20050;-90
2021/06/08 12:30:25;;;;;;;5.55;3.47;;;27.10;60.70;;;;;;5055347;28;20547;-90
2021/06/08 12:33:09;;;;;;;3.92;3.10;;;27.10;58.80;;;;;;5055429;28;20028;-90
2021/06/08 12:35:36;;;;;;;4.65;3.53;;;27.20;60.10;;;;;;5035344;28;20059;-90
2021/06/08 12:38:15;;;;;;;3.70;3.05;;;27.20;59.60;;;;;;5039151;28;20120;-90
2021/06/08 12:40:42;;;;;;;3.90;2.97;;;27.20;59.30;;;;;;5062349;28;20075;-90
2021/06/08 12:43:08;;;;;;;4.88;3.70;;;27.30;59.10;;;;;;5049640;28;20459;-90
2021/06/08 12:45:34;;;;;;;5.15;3.90;;;27.30;58.80;;;;;;5011123;28;20025;-90
2021/06/08 12:48:00;;;;;;;4.95;3.70;;;27.40;58.60;;;;;;5038444;28;20032;-90
2021/06/08 12:50:36;;;;;;;4.25;3.33;;;27.40;58.60;;;;;;5038539;28;20028;-90
2021/06/08 12:53:04;;;;;;;4.28;3.40;;;27.50;59.40;;;;;;5071800;28;20436;-90
2021/06/08 12:55:33;;;;;;;3.25;2.78;;;27.50;58.60;;;;;;5055078;28;20056;-90
2021/06/08 12:58:00;;;;;;;4.10;3.17;;;27.60;58.80;;;;;;5038209;28;20035;-90
2021/06/08 13:00:29;;;;;;;4.35;3.35;;;27.60;58.80;;;;;;5038378;28;20021;-90
2021/06/08 13:02:56;;;;;;;5.68;3.28;;;27.60;58.50;;;;;;5079270;28;20024;-90
2021/06/08 13:05:27;;;;;;;3.63;3.25;;;27.70;58.60;;;;;;5068983;28;20024;-90
2021/06/08 13:07:54;;;;;;;3.85;3.30;;;27.70;58.40;;;;;;5063679;28;20044;-90